Time;durP1;ratioP1;P1;durP2;ratioP2;P2;SDS_P1;SDS_P2;PMS_P1;PMS_P2;Temp;Humidity;BMP_temperature;BMP_pressure;BME280_temperature;BME280_humidity;BME280_pressure;Samples;Min_cycle;Max_cycle;Signal;HPM_P1;HPM_P2
2021/04/27 00:00:31;;;;;;;24.90;23.30;;;7.60;57.10;;;;;;5095110;28;20222;-76
2021/04/27 00:02:57;;;;;;;25.38;23.88;;;7.60;56.30;;;;;;5095283;28;20602;-76
2021/04/27 00:05:24;;;;;;;25.10;23.70;;;7.70;53.10;;;;;;5095161;28;20312;-76
2021/04/27 00:07:50;;;;;;;25.20;23.80;;;7.80;52.00;;;;;;5094875;28;20193;-76
2021/04/27 00:10:20;;;;;;;24.85;23.05;;;7.90;49.70;;;;;;5095056;28;20260;-76
2021/04/27 00:12:46;;;;;;;24.55;23.25;;;7.90;48.90;;;;;;5094886;28;20709;-76
2021/04/27 00:15:16;;;;;;;24.80;23.48;;;8.00;48.20;;;;;;5095030;28;20776;-76
2021/04/27 00:17:43;;;;;;;25.38;23.58;;;8.10;47.20;;;;;;5094889;28;20193;-76
2021/04/27 00:20:11;;;;;;;25.05;23.52;;;8.10;47.30;;;;;;5094923;28;20219;-76
2021/04/27 00:22:37;;;;;;;25.05;23.55;;;8.20;47.20;;;;;;5094880;28;20298;-76
2021/04/27 00:25:05;;;;;;;25.60;23.95;;;8.30;46.90;;;;;;5094130;28;20619;-76
2021/04/27 00:27:32;;;;;;;25.95;24.33;;;8.30;47.20;;;;;;5094283;28;20274;-76
2021/04/27 00:29:58;;;;;;;25.48;23.88;;;8.30;47.00;;;;;;5094618;28;20201;-76
2021/04/27 00:32:25;;;;;;;25.73;24.23;;;8.30;47.00;;;;;;5094608;28;20285;-76
2021/04/27 00:34:52;;;;;;;25.65;24.25;;;8.30;47.10;;;;;;5094605;28;20202;-77
2021/04/27 00:37:18;;;;;;;24.60;23.15;;;8.30;47.20;;;;;;5094078;28;20206;-76
2021/04/27 00:39:45;;;;;;;26.52;24.50;;;8.40;47.60;;;;;;5094578;28;20207;-76
2021/04/27 00:42:12;;;;;;;24.50;23.05;;;8.40;47.50;;;;;;5094706;28;20290;-76
2021/04/27 00:44:39;;;;;;;25.58;24.08;;;8.40;47.10;;;;;;5094368;28;20196;-76
2021/04/27 00:47:06;;;;;;;25.75;24.15;;;8.40;47.30;;;;;;5093877;28;20265;-76
2021/04/27 00:49:33;;;;;;;25.25;23.75;;;8.30;47.40;;;;;;5094488;28;20228;-76
2021/04/27 00:51:59;;;;;;;25.45;23.90;;;8.30;47.50;;;;;;5094334;28;20272;-76
2021/04/27 00:54:26;;;;;;;25.33;23.85;;;8.30;47.40;;;;;;5094180;28;20202;-76
2021/04/27 00:56:52;;;;;;;24.92;23.42;;;8.30;47.90;;;;;;5093777;28;20238;-76
2021/04/27 00:59:18;;;;;;;25.42;23.77;;;8.30;48.30;;;;;;5094202;28;20343;-76
2021/04/27 01:01:46;;;;;;;25.10;23.63;;;8.20;48.70;;;;;;5094279;28;20270;-76
2021/04/27 01:04:13;;;;;;;26.58;24.83;;;8.20;48.80;;;;;;5094097;28;20290;-76
2021/04/27 01:06:39;;;;;;;24.80;23.50;;;8.10;49.40;;;;;;5093465;28;20286;-76
2021/04/27 01:09:09;;;;;;;26.15;24.75;;;8.10;48.90;;;;;;5093843;28;20238;-77
2021/04/27 01:11:45;;;;;;;26.13;24.35;;;8.00;50.10;;;;;;5094129;28;20693;-76
2021/04/27 01:14:19;;;;;;;26.15;24.15;;;8.00;50.60;;;;;;5093754;28;20250;-76
2021/04/27 01:16:54;;;;;;;25.60;24.27;;;8.00;50.40;;;;;;5093200;28;20717;-77
2021/04/27 01:19:27;;;;;;;26.25;24.48;;;8.00;49.90;;;;;;5093799;28;20631;-76
2021/04/27 01:21:55;;;;;;;25.50;24.00;;;7.90;50.00;;;;;;5093568;28;20225;-76
2021/04/27 01:24:26;;;;;;;25.25;23.70;;;7.80;50.00;;;;;;5093403;28;20192;-75
2021/04/27 01:26:56;;;;;;;26.08;24.58;;;7.80;50.20;;;;;;5093075;28;20216;-76
2021/04/27 01:29:26;;;;;;;26.27;24.77;;;7.70;52.10;;;;;;5093716;28;20197;-75
2021/04/27 01:31:55;;;;;;;25.55;24.15;;;7.70;50.50;;;;;;5093446;28;20676;-75
2021/04/27 01:34:25;;;;;;;25.38;23.75;;;7.60;50.40;;;;;;5093603;28;20255;-75
2021/04/27 01:36:54;;;;;;;24.92;23.42;;;7.60;50.50;;;;;;5092766;28;20580;-76
2021/04/27 01:39:25;;;;;;;25.65;23.92;;;7.60;50.40;;;;;;5093455;28;20279;-75
2021/04/27 01:41:53;;;;;;;25.25;23.85;;;7.60;50.70;;;;;;5093485;28;20633;-75
2021/04/27 01:44:20;;;;;;;26.10;24.25;;;7.60;50.90;;;;;;5093238;28;20224;-75
2021/04/27 01:46:47;;;;;;;26.52;24.73;;;7.50;50.60;;;;;;5092557;28;20734;-74
2021/04/27 01:49:15;;;;;;;25.75;24.13;;;7.50;51.90;;;;;;5093414;28;20348;-77
2021/04/27 01:51:42;;;;;;;24.98;23.60;;;7.50;51.50;;;;;;5093297;28;20211;-76
2021/04/27 01:54:09;;;;;;;25.08;23.40;;;7.60;51.40;;;;;;5093068;28;20207;-76
2021/04/27 01:56:36;;;;;;;25.05;23.65;;;7.50;51.80;;;;;;5092616;28;20215;-76
2021/04/27 01:59:04;;;;;;;26.33;24.15;;;7.50;51.50;;;;;;5092962;28;20604;-76
2021/04/27 02:01:31;;;;;;;26.60;24.95;;;7.60;51.90;;;;;;5093088;28;20302;-76
2021/04/27 02:03:58;;;;;;;27.25;25.45;;;7.50;51.90;;;;;;5093055;28;20286;-76
2021/04/27 02:06:24;;;;;;;26.52;24.65;;;7.50;52.30;;;;;;5092485;28;20546;-76
2021/04/27 02:09:00;;;;;;;27.42;25.63;;;7.40;51.90;;;;;;5092927;28;20275;-76
2021/04/27 02:11:29;;;;;;;26.67;24.92;;;7.40;52.00;;;;;;5092706;28;20248;-76
2021/04/27 02:13:56;;;;;;;25.70;24.25;;;7.30;52.20;;;;;;5092621;28;20199;-76
2021/04/27 02:16:27;;;;;;;25.65;24.20;;;7.20;53.00;;;;;;5092323;28;20225;-76
2021/04/27 02:18:57;;;;;;;25.52;24.08;;;7.20;55.20;;;;;;5092690;28;20204;-76
2021/04/27 02:21:26;;;;;;;25.58;23.85;;;7.20;55.90;;;;;;5092215;28;20218;-76
2021/04/27 02:23:54;;;;;;;25.80;24.05;;;7.20;53.50;;;;;;5092116;28;20653;-76
2021/04/27 02:26:21;;;;;;;25.63;24.02;;;7.20;52.80;;;;;;5092129;28;20282;-76
2021/04/27 02:28:49;;;;;;;24.88;23.48;;;7.10;53.00;;;;;;5092587;28;20207;-76
2021/04/27 02:31:16;;;;;;;25.30;23.90;;;7.10;53.20;;;;;;5092347;28;20223;-76
2021/04/27 02:33:44;;;;;;;25.80;24.20;;;7.10;53.50;;;;;;5092640;28;20199;-76
2021/04/27 02:36:11;;;;;;;26.05;24.25;;;7.10;55.80;;;;;;5091998;28;20639;-76
2021/04/27 02:38:38;;;;;;;27.42;25.58;;;7.10;54.20;;;;;;5092363;28;20195;-76
2021/04/27 02:41:04;;;;;;;24.63;23.23;;;7.10;54.30;;;;;;5092321;28;20691;-76
2021/04/27 02:43:31;;;;;;;24.75;23.25;;;7.10;53.90;;;;;;5092279;28;20250;-76
2021/04/27 02:45:58;;;;;;;25.63;23.95;;;7.00;53.90;;;;;;5091842;28;20676;-76
2021/04/27 02:48:27;;;;;;;25.58;23.98;;;7.10;53.90;;;;;;5092135;28;20218;-76
2021/04/27 02:50:56;;;;;;;25.15;23.35;;;7.00;54.10;;;;;;5092334;28;20225;-76
2021/04/27 02:53:23;;;;;;;26.15;24.52;;;7.00;57.10;;;;;;5092344;28;20195;-76
2021/04/27 02:55:49;;;;;;;26.33;24.58;;;6.90;54.60;;;;;;5091779;28;20218;-76
2021/04/27 02:58:18;;;;;;;25.67;24.15;;;6.90;69.10;;;;;;5092213;28;20202;-76
2021/04/27 03:00:45;;;;;;;25.27;23.77;;;6.80;57.30;;;;;;5092198;28;20306;-75
2021/04/27 03:03:12;;;;;;;26.30;24.67;;;6.80;55.60;;;;;;5092353;28;20244;-76
2021/04/27 03:05:38;;;;;;;26.35;24.75;;;6.80;55.40;;;;;;5091677;28;20202;-76
2021/04/27 03:08:06;;;;;;;27.83;26.23;;;6.80;55.50;;;;;;5092104;28;20203;-76
2021/04/27 03:10:33;;;;;;;28.35;26.50;;;6.90;55.60;;;;;;5092138;28;20725;-76
2021/04/27 03:13:00;;;;;;;29.60;27.80;;;6.80;57.50;;;;;;5092068;28;20231;-76
2021/04/27 03:15:27;;;;;;;28.02;26.13;;;6.80;56.70;;;;;;5091679;28;20215;-76
2021/04/27 03:17:53;;;;;;;27.63;25.92;;;6.80;56.10;;;;;;5091920;28;20298;-75
2021/04/27 03:20:20;;;;;;;25.42;23.85;;;6.80;55.90;;;;;;5091983;28;20242;-76
2021/04/27 03:22:46;;;;;;;26.27;24.77;;;6.70;55.90;;;;;;5091984;28;20288;-76
2021/04/27 03:25:14;;;;;;;27.95;25.88;;;6.70;55.60;;;;;;5091453;28;20200;-75
2021/04/27 03:27:41;;;;;;;28.42;26.67;;;6.70;56.00;;;;;;5091437;28;20333;-75
2021/04/27 03:30:09;;;;;;;28.98;27.17;;;6.70;56.50;;;;;;5091707;28;20235;-76
2021/04/27 03:32:36;;;;;;;29.20;27.20;;;6.70;57.80;;;;;;5092298;28;20197;-75
2021/04/27 03:35:04;;;;;;;27.17;25.30;;;6.60;56.60;;;;;;5095669;28;20278;-75
2021/04/27 03:37:30;;;;;;;27.13;25.58;;;6.60;56.60;;;;;;5095188;28;20234;-76
2021/04/27 03:39:56;;;;;;;28.73;27.02;;;6.60;56.60;;;;;;5095632;28;20198;-75
2021/04/27 03:42:24;;;;;;;27.15;25.45;;;6.60;56.50;;;;;;5095772;28;20256;-76
2021/04/27 03:44:50;;;;;;;24.90;23.40;;;6.60;57.90;;;;;;5095524;28;20544;-75
2021/04/27 03:47:17;;;;;;;24.65;23.25;;;6.50;60.20;;;;;;5095109;28;20201;-76
2021/04/27 03:49:43;;;;;;;31.02;29.30;;;6.40;58.90;;;;;;5095347;28;20199;-75
2021/04/27 03:52:09;;;;;;;25.70;24.20;;;6.30;58.60;;;;;;5095487;28;20228;-76
2021/04/27 03:54:36;;;;;;;30.63;28.92;;;6.40;58.80;;;;;;5095367;28;20201;-75
2021/04/27 03:57:02;;;;;;;28.92;27.13;;;6.30;59.20;;;;;;5095009;28;20241;-76
2021/04/27 03:59:30;;;;;;;28.30;26.50;;;6.20;59.60;;;;;;5095339;28;20193;-75
2021/04/27 04:01:56;;;;;;;29.08;27.15;;;6.30;59.70;;;;;;5095087;28;20310;-75
2021/04/27 04:04:23;;;;;;;35.15;33.33;;;6.30;59.80;;;;;;5095258;28;20244;-75
2021/04/27 04:06:49;;;;;;;26.50;24.80;;;6.30;59.70;;;;;;5094647;28;20210;-75
2021/04/27 04:09:16;;;;;;;32.55;30.65;;;6.20;60.00;;;;;;5095127;28;20202;-75
2021/04/27 04:11:43;;;;;;;27.35;25.55;;;6.20;59.60;;;;;;5095172;28;20275;-76
2021/04/27 04:14:09;;;;;;;30.42;28.63;;;6.20;59.90;;;;;;5094879;28;20198;-75
2021/04/27 04:16:37;;;;;;;27.52;25.83;;;6.20;60.10;;;;;;5094174;28;20291;-76
2021/04/27 04:19:04;;;;;;;25.50;24.00;;;6.10;60.00;;;;;;5094925;28;20241;-75
2021/04/27 04:21:30;;;;;;;28.58;26.88;;;6.20;60.20;;;;;;5094938;28;20298;-76
2021/04/27 04:23:57;;;;;;;45.92;30.88;;;6.20;60.50;;;;;;5094608;28;20199;-75
2021/04/27 04:26:24;;;;;;;26.70;25.00;;;6.10;60.60;;;;;;5094222;28;20282;-75
2021/04/27 04:28:50;;;;;;;30.40;27.65;;;6.10;61.10;;;;;;5094627;28;20282;-75
2021/04/27 04:31:16;;;;;;;26.27;24.63;;;6.00;61.00;;;;;;5094372;28;20781;-77
2021/04/27 04:33:44;;;;;;;29.95;27.95;;;6.10;61.00;;;;;;5094606;28;20241;-75
2021/04/27 04:36:10;;;;;;;26.92;25.10;;;6.10;61.20;;;;;;5094057;28;20225;-76
2021/04/27 04:38:37;;;;;;;32.92;31.13;;;6.10;61.10;;;;;;5094637;28;20565;-76
2021/04/27 04:41:04;;;;;;;26.92;25.00;;;6.20;60.40;;;;;;5094587;28;20696;-76
2021/04/27 04:43:31;;;;;;;28.13;26.42;;;6.20;60.50;;;;;;5094033;28;20282;-75
2021/04/27 04:45:58;;;;;;;28.73;26.70;;;6.40;57.90;;;;;;5093986;28;20283;-75
2021/04/27 04:48:24;;;;;;;27.70;25.95;;;6.40;57.50;;;;;;5094480;28;20218;-77
2021/04/27 04:50:51;;;;;;;28.30;26.45;;;6.50;57.20;;;;;;5094303;28;20629;-76
2021/04/27 04:53:18;;;;;;;27.33;25.83;;;6.60;56.40;;;;;;5094533;28;20206;-76
2021/04/27 04:55:44;;;;;;;27.77;25.50;;;6.60;56.10;;;;;;5093865;28;20686;-75
2021/04/27 04:58:11;;;;;;;26.70;25.10;;;6.70;56.00;;;;;;5094100;28;20195;-75
2021/04/27 05:00:37;;;;;;;28.90;26.67;;;6.80;55.60;;;;;;5094168;28;20272;-75
2021/04/27 05:03:04;;;;;;;31.08;29.30;;;6.90;55.40;;;;;;5094307;28;20261;-75
2021/04/27 05:05:30;;;;;;;26.40;24.80;;;7.00;55.20;;;;;;5093488;28;20602;-75
2021/04/27 05:08:00;;;;;;;28.05;26.30;;;7.00;55.50;;;;;;5094087;28;20197;-75
2021/04/27 05:10:27;;;;;;;27.00;25.40;;;7.20;55.10;;;;;;5094138;28;20208;-76
2021/04/27 05:12:54;;;;;;;28.83;27.02;;;7.20;54.90;;;;;;5093958;28;20210;-75
2021/04/27 05:15:21;;;;;;;29.48;27.70;;;7.20;54.80;;;;;;5093817;28;20205;-74
2021/04/27 05:17:48;;;;;;;27.08;25.45;;;7.20;54.80;;;;;;5093619;28;20231;-75
2021/04/27 05:20:16;;;;;;;29.85;27.55;;;7.30;54.60;;;;;;5093744;28;20268;-76
2021/04/27 05:22:45;;;;;;;28.63;26.65;;;7.30;54.60;;;;;;5093761;28;20198;-75
2021/04/27 05:25:14;;;;;;;30.48;28.58;;;7.50;54.30;;;;;;5093107;28;20292;-75
2021/04/27 05:27:40;;;;;;;28.13;26.13;;;7.60;54.10;;;;;;5093456;28;20196;-75
2021/04/27 05:30:08;;;;;;;26.75;25.13;;;7.60;54.00;;;;;;5093362;28;20243;-75
2021/04/27 05:32:35;;;;;;;31.30;29.10;;;7.60;53.70;;;;;;5093672;28;20249;-75
2021/04/27 05:35:01;;;;;;;29.75;27.95;;;7.60;53.70;;;;;;5093492;28;20191;-76
2021/04/27 05:37:27;;;;;;;27.88;26.08;;;7.70;53.60;;;;;;5092691;28;20215;-76
2021/04/27 05:39:54;;;;;;;25.98;24.17;;;7.70;53.40;;;;;;5093381;28;20759;-76
2021/04/27 05:42:21;;;;;;;27.38;25.83;;;7.70;53.50;;;;;;5093280;28;20195;-76
2021/04/27 05:44:47;;;;;;;28.67;26.67;;;7.60;53.90;;;;;;5093394;28;20237;-76
2021/04/27 05:47:14;;;;;;;31.30;29.05;;;7.70;53.90;;;;;;5092657;28;20228;-76
2021/04/27 05:49:41;;;;;;;28.85;26.38;;;7.80;53.70;;;;;;5093335;28;20566;-76
2021/04/27 05:52:08;;;;;;;28.33;26.60;;;7.90;53.70;;;;;;5093230;28;20228;-76
2021/04/27 05:54:35;;;;;;;28.20;25.70;;;8.00;53.20;;;;;;5093100;28;20202;-75
2021/04/27 05:57:01;;;;;;;28.05;26.27;;;8.20;53.10;;;;;;5091799;28;20219;-76
2021/04/27 05:59:28;;;;;;;28.95;26.75;;;8.20;55.20;;;;;;5093139;28;20207;-76
2021/04/27 06:01:55;;;;;;;35.83;33.78;;;8.20;53.90;;;;;;5092874;28;20704;-75
2021/04/27 06:04:22;;;;;;;36.28;34.08;;;8.20;53.30;;;;;;5092996;28;20280;-76
2021/04/27 06:06:48;;;;;;;30.52;28.08;;;8.30;54.70;;;;;;5092301;28;20194;-76
2021/04/27 06:09:16;;;;;;;31.08;29.25;;;8.50;52.70;;;;;;5092869;28;20390;-76
2021/04/27 06:11:43;;;;;;;28.50;26.50;;;8.60;52.40;;;;;;5092946;28;20222;-76
2021/04/27 06:14:09;;;;;;;27.80;26.10;;;8.60;53.50;;;;;;5092944;28;20206;-76
2021/04/27 06:16:37;;;;;;;29.67;27.75;;;8.80;53.00;;;;;;5092264;28;20318;-76
2021/04/27 06:19:04;;;;;;;30.30;28.25;;;8.70;51.20;;;;;;5092936;28;20277;-76
2021/04/27 06:21:30;;;;;;;31.98;29.58;;;8.90;51.40;;;;;;5092556;28;20659;-75
2021/04/27 06:23:57;;;;;;;29.42;27.00;;;9.00;51.20;;;;;;5092591;28;20230;-77
2021/04/27 06:26:24;;;;;;;28.27;26.30;;;9.00;50.80;;;;;;5091878;28;20286;-76
2021/04/27 06:28:50;;;;;;;30.83;28.88;;;8.90;51.20;;;;;;5092612;28;20204;-77
2021/04/27 06:31:18;;;;;;;29.30;27.30;;;9.00;50.90;;;;;;5092411;28;20223;-76
2021/04/27 06:33:45;;;;;;;28.80;26.90;;;9.00;51.90;;;;;;5092530;28;20265;-76
2021/04/27 06:36:14;;;;;;;27.80;26.20;;;8.90;51.60;;;;;;5091920;28;20291;-76
2021/04/27 06:38:41;;;;;;;29.75;27.77;;;9.00;51.20;;;;;;5092403;28;20203;-76
2021/04/27 06:41:07;;;;;;;31.00;29.00;;;9.10;50.90;;;;;;5092254;28;20290;-76
2021/04/27 06:43:34;;;;;;;29.08;27.48;;;9.10;51.30;;;;;;5092396;28;20192;-76
2021/04/27 06:46:01;;;;;;;29.60;27.60;;;9.00;51.40;;;;;;5091918;28;20194;-76
2021/04/27 06:48:28;;;;;;;29.08;26.95;;;8.90;51.60;;;;;;5092237;28;20203;-77
2021/04/27 06:50:55;;;;;;;28.98;27.08;;;8.90;52.40;;;;;;5092244;28;20246;-77
2021/04/27 06:53:22;;;;;;;29.10;27.45;;;9.00;51.70;;;;;;5092463;28;20217;-76
2021/04/27 06:55:49;;;;;;;28.50;26.73;;;9.00;51.70;;;;;;5091858;28;20215;-76
2021/04/27 06:58:16;;;;;;;29.60;27.65;;;9.10;51.40;;;;;;5092258;28;20736;-76
2021/04/27 07:00:43;;;;;;;30.88;28.75;;;9.20;51.10;;;;;;5092222;28;20218;-76
2021/04/27 07:03:10;;;;;;;28.88;27.08;;;9.00;51.50;;;;;;5092064;28;20195;-77
2021/04/27 07:05:37;;;;;;;29.27;27.48;;;9.00;51.90;;;;;;5091676;28;20291;-76
2021/04/27 07:08:04;;;;;;;29.27;27.48;;;9.00;52.00;;;;;;5095257;28;20561;-76
2021/04/27 07:10:31;;;;;;;28.95;27.08;;;9.10;51.90;;;;;;5096307;28;20700;-76
2021/04/27 07:12:57;;;;;;;28.00;26.13;;;9.20;51.80;;;;;;5096208;28;20259;-77
2021/04/27 07:15:24;;;;;;;30.52;28.33;;;9.10;51.60;;;;;;5095978;28;20298;-76
2021/04/27 07:17:51;;;;;;;29.85;27.63;;;9.30;51.60;;;;;;5095625;28;20690;-77
2021/04/27 07:20:17;;;;;;;36.45;33.90;;;9.30;51.50;;;;;;5096105;28;20214;-76
2021/04/27 07:22:44;;;;;;;29.27;27.27;;;9.20;51.50;;;;;;5095988;28;20285;-76
2021/04/27 07:25:13;;;;;;;29.83;27.70;;;9.50;51.40;;;;;;5095599;28;20207;-76
2021/04/27 07:27:40;;;;;;;80.25;40.10;;;9.60;50.80;;;;;;5095574;28;20723;-76
2021/04/27 07:30:09;;;;;;;29.60;27.65;;;9.60;50.70;;;;;;5095754;28;20763;-77
2021/04/27 07:32:35;;;;;;;30.80;28.83;;;9.80;50.50;;;;;;5095896;28;20248;-77
2021/04/27 07:35:02;;;;;;;29.52;27.40;;;9.90;52.30;;;;;;5096022;28;20205;-77
2021/04/27 07:37:30;;;;;;;29.40;27.02;;;9.90;50.60;;;;;;5095292;28;20255;-77
2021/04/27 07:39:56;;;;;;;29.63;27.70;;;10.10;50.50;;;;;;5095878;28;20249;-76
2021/04/27 07:42:23;;;;;;;31.05;28.95;;;10.10;50.00;;;;;;5095702;28;20216;-76
2021/04/27 07:44:50;;;;;;;28.05;26.25;;;10.20;50.00;;;;;;5096039;28;20282;-76
2021/04/27 07:47:16;;;;;;;29.00;27.15;;;10.30;49.50;;;;;;5095012;28;20271;-76
2021/04/27 07:49:43;;;;;;;37.60;35.45;;;10.30;49.60;;;;;;5095736;28;20234;-76
2021/04/27 07:52:10;;;;;;;29.25;27.58;;;10.30;49.80;;;;;;5095871;28;20199;-77
2021/04/27 07:54:36;;;;;;;30.70;28.80;;;10.50;49.30;;;;;;5095455;28;20560;-77
2021/04/27 07:57:02;;;;;;;30.38;28.67;;;10.50;49.10;;;;;;5095004;28;20302;-76
2021/04/27 07:59:30;;;;;;;31.55;29.70;;;10.50;49.10;;;;;;5095441;28;20595;-77
2021/04/27 08:01:56;;;;;;;31.15;29.00;;;10.60;49.20;;;;;;5095369;28;20306;-77
2021/04/27 08:04:23;;;;;;;29.67;27.90;;;10.60;49.20;;;;;;5095395;28;20191;-76
2021/04/27 08:06:49;;;;;;;32.25;29.25;;;10.80;49.30;;;;;;5094698;28;20195;-77
2021/04/27 08:09:15;;;;;;;37.72;35.08;;;11.00;48.90;;;;;;5095100;28;20201;-79
2021/04/27 08:11:42;;;;;;;36.53;31.92;;;11.10;48.60;;;;;;5095009;28;20302;-77
2021/04/27 08:14:09;;;;;;;31.08;28.98;;;11.10;48.60;;;;;;5095108;28;20196;-77
2021/04/27 08:16:37;;;;;;;31.45;29.15;;;11.30;48.00;;;;;;5094228;28;20227;-77
2021/04/27 08:19:04;;;;;;;30.80;29.10;;;11.40;47.70;;;;;;5094380;28;20606;-77
2021/04/27 08:21:31;;;;;;;31.08;28.92;;;11.30;47.90;;;;;;5094971;28;20993;-77
2021/04/27 08:23:57;;;;;;;32.70;30.50;;;11.30;48.00;;;;;;5094896;28;20199;-77
2021/04/27 08:26:25;;;;;;;31.85;30.05;;;11.20;48.00;;;;;;5093917;28;20192;-77
2021/04/27 08:28:52;;;;;;;31.90;30.00;;;11.30;48.10;;;;;;5094921;28;20278;-77
2021/04/27 08:31:18;;;;;;;31.45;29.25;;;11.30;47.90;;;;;;5094347;28;20215;-77
2021/04/27 08:33:45;;;;;;;31.55;29.55;;;11.40;48.10;;;;;;5094805;28;20246;-77
2021/04/27 08:36:12;;;;;;;35.97;30.97;;;11.70;48.00;;;;;;5094101;28;20632;-77
2021/04/27 08:38:39;;;;;;;31.00;28.80;;;11.90;47.60;;;;;;5094776;28;20536;-77
2021/04/27 08:41:05;;;;;;;33.37;30.67;;;11.80;47.30;;;;;;5094401;28;20958;-77
2021/04/27 08:43:32;;;;;;;31.83;29.67;;;11.70;47.50;;;;;;5094510;28;20449;-77
2021/04/27 08:45:59;;;;;;;32.77;30.23;;;11.90;47.40;;;;;;5093943;28;20449;-76
2021/04/27 08:48:26;;;;;;;32.60;29.97;;;12.00;47.00;;;;;;5094386;28;20465;-77
2021/04/27 08:50:53;;;;;;;36.97;34.67;;;12.20;46.50;;;;;;5094295;28;20535;-76
2021/04/27 08:53:20;;;;;;;36.03;33.57;;;12.40;46.10;;;;;;5094195;28;20965;-76
2021/04/27 08:55:47;;;;;;;31.63;29.70;;;12.40;46.10;;;;;;5093729;28;20542;-76
2021/04/27 08:58:15;;;;;;;33.10;31.00;;;12.50;46.20;;;;;;5094181;28;20536;-76
2021/04/27 09:00:42;;;;;;;34.17;31.97;;;12.60;46.10;;;;;;5094208;28;20542;-76
2021/04/27 09:03:10;;;;;;;33.83;31.10;;;12.60;46.50;;;;;;5094234;28;20476;-77
2021/04/27 09:05:39;;;;;;;31.47;29.17;;;12.70;45.80;;;;;;5093640;28;20456;-76
2021/04/27 09:08:06;;;;;;;32.30;30.00;;;12.90;45.60;;;;;;5093930;28;20457;-78
2021/04/27 09:10:39;;;;;;;32.47;30.00;;;12.90;45.60;;;;;;5093888;28;20465;-76
2021/04/27 09:13:10;;;;;;;32.40;30.00;;;12.80;45.50;;;;;;5094035;28;20540;-78
2021/04/27 09:15:45;;;;;;;33.20;31.10;;;12.70;46.10;;;;;;5093338;28;21023;-76
2021/04/27 09:18:29;;;;;;;32.13;29.97;;;12.80;46.00;;;;;;5093733;28;20449;-76
2021/04/27 09:20:58;;;;;;;32.00;29.77;;;13.00;45.60;;;;;;5093584;28;20484;-77
2021/04/27 09:23:26;;;;;;;32.27;29.77;;;12.90;45.30;;;;;;5093670;28;20453;-76
2021/04/27 09:26:10;;;;;;;33.13;30.60;;;12.80;45.70;;;;;;5092622;28;20453;-76
2021/04/27 09:28:37;;;;;;;33.90;31.30;;;12.80;46.20;;;;;;5093719;28;20532;-80
2021/04/27 09:31:22;;;;;;;32.10;30.03;;;13.20;45.70;;;;;;5092372;28;20473;-76
2021/04/27 09:33:49;;;;;;;39.27;36.90;;;13.40;45.00;;;;;;5093598;28;20461;-76
2021/04/27 09:36:20;;;;;;;33.13;31.03;;;13.30;45.30;;;;;;5092819;28;20473;-76
2021/04/27 09:38:48;;;;;;;33.47;31.17;;;13.10;45.50;;;;;;5093494;28;20532;-77
2021/04/27 09:41:14;;;;;;;32.00;29.93;;;13.40;45.30;;;;;;5093383;28;20512;-77
2021/04/27 09:43:42;;;;;;;32.03;29.80;;;13.30;45.40;;;;;;5093092;28;20457;-77
2021/04/27 09:46:11;;;;;;;34.30;31.67;;;13.50;45.40;;;;;;5093009;28;20457;-77
2021/04/27 09:48:39;;;;;;;32.20;29.67;;;13.50;45.20;;;;;;5093292;28;20461;-76
2021/04/27 09:51:20;;;;;;;36.37;34.03;;;13.40;45.50;;;;;;5093443;28;20560;-78
2021/04/27 09:53:51;;;;;;;32.73;30.33;;;13.50;45.50;;;;;;5093311;28;20831;-77
2021/04/27 09:56:38;;;;;;;31.93;30.00;;;13.50;45.30;;;;;;5092528;28;20597;-77
2021/04/27 09:59:08;;;;;;;32.80;30.60;;;13.60;45.30;;;;;;5093089;28;20449;-76
2021/04/27 10:01:35;;;;;;;34.13;31.60;;;13.50;45.20;;;;;;5092995;28;20560;-76
2021/04/27 10:04:02;;;;;;;33.17;30.87;;;13.40;45.40;;;;;;5093085;28;20867;-76
2021/04/27 10:06:29;;;;;;;37.40;35.00;;;13.40;45.70;;;;;;5092400;28;20822;-77
2021/04/27 10:08:57;;;;;;;32.20;30.30;;;13.40;45.20;;;;;;5092804;28;20453;-76
2021/04/27 10:11:26;;;;;;;34.63;32.20;;;13.30;45.50;;;;;;5092975;28;20495;-76
2021/04/27 10:13:53;;;;;;;32.30;30.20;;;13.40;45.60;;;;;;5092853;28;20489;-76
2021/04/27 10:16:20;;;;;;;33.20;30.80;;;13.40;45.70;;;;;;5092406;28;20476;-76
2021/04/27 10:18:47;;;;;;;31.30;29.20;;;13.50;45.60;;;;;;5092897;28;21005;-77
2021/04/27 10:21:14;;;;;;;32.47;30.13;;;13.50;45.70;;;;;;5093007;28;20569;-76
2021/04/27 10:23:42;;;;;;;33.77;31.27;;;13.60;45.40;;;;;;5092733;28;20449;-76
2021/04/27 10:26:09;;;;;;;33.77;31.37;;;13.80;45.00;;;;;;5091752;28;20458;-76
2021/04/27 10:28:59;;;;;;;34.13;31.57;;;13.90;44.90;;;;;;5092597;28;20516;-77
2021/04/27 10:31:26;;;;;;;34.50;32.10;;;13.80;44.90;;;;;;5092248;28;21009;-76
2021/04/27 10:34:02;;;;;;;32.30;30.40;;;13.80;44.90;;;;;;5092447;28;20460;-76
2021/04/27 10:36:29;;;;;;;33.40;30.53;;;13.80;45.10;;;;;;5091730;28;20479;-77
2021/04/27 10:38:57;;;;;;;32.70;30.07;;;13.80;46.20;;;;;;5092441;28;20455;-76
2021/04/27 10:41:43;;;;;;;34.73;31.93;;;14.10;46.00;;;;;;5092016;28;20477;-76
2021/04/27 10:44:09;;;;;;;34.73;32.20;;;14.20;44.20;;;;;;5092479;28;20457;-76
2021/04/27 10:46:55;;;;;;;34.00;31.70;;;14.30;44.00;;;;;;5091706;28;20450;-76
2021/04/27 10:49:34;;;;;;;33.67;31.27;;;14.30;45.20;;;;;;5092389;28;20453;-76
2021/04/27 10:52:03;;;;;;;33.73;31.23;;;14.30;44.10;;;;;;5092360;28;20831;-76
2021/04/27 10:54:32;;;;;;;35.50;32.77;;;14.40;44.00;;;;;;5092397;28;20473;-76
2021/04/27 10:57:15;;;;;;;34.17;31.67;;;14.50;44.70;;;;;;5091685;28;20838;-78
2021/04/27 10:59:59;;;;;;;32.57;30.53;;;14.60;43.40;;;;;;5092633;28;20449;-76
2021/04/27 11:02:27;;;;;;;33.20;31.10;;;14.40;43.90;;;;;;5092548;28;20719;-76
2021/04/27 11:05:01;;;;;;;33.73;31.33;;;14.40;44.10;;;;;;5092088;28;20457;-77
2021/04/27 11:07:36;;;;;;;35.10;32.50;;;14.60;43.80;;;;;;5092087;28;20526;-76
2021/04/27 11:10:22;;;;;;;34.10;31.50;;;14.70;43.00;;;;;;5092166;28;20479;-76
2021/04/27 11:12:58;;;;;;;35.50;32.87;;;14.80;42.60;;;;;;5092172;28;20510;-77
2021/04/27 11:15:27;;;;;;;35.70;33.40;;;14.80;42.60;;;;;;5092061;28;20480;-76
2021/04/27 11:18:17;;;;;;;34.70;32.40;;;14.80;42.10;;;;;;5092090;28;21009;-76
2021/04/27 11:20:59;;;;;;;35.40;33.10;;;14.90;42.00;;;;;;5092067;28;20473;-76
2021/04/27 11:23:41;;;;;;;36.17;33.67;;;15.10;42.20;;;;;;5091974;28;20489;-77
2021/04/27 11:26:53;;;;;;;35.30;32.80;;;15.30;42.00;;;;;;5090952;28;20453;-77
2021/04/27 11:29:29;;;;;;;36.40;33.63;;;15.40;41.60;;;;;;5091855;28;20460;-77
2021/04/27 11:32:13;;;;;;;37.00;34.17;;;15.40;41.20;;;;;;5091861;28;20529;-78
2021/04/27 11:35:10;;;;;;;36.23;33.43;;;15.60;40.50;;;;;;5092089;28;20449;-76
2021/04/27 11:37:40;;;;;;;35.60;33.10;;;15.70;39.40;;;;;;5091410;28;20504;-76
2021/04/27 11:40:26;;;;;;;37.23;34.80;;;15.80;39.20;;;;;;5091862;28;20473;-77
2021/04/27 11:42:55;;;;;;;36.10;33.53;;;15.70;39.40;;;;;;5091957;28;20501;-76
2021/04/27 11:45:23;;;;;;;37.90;35.43;;;15.70;39.50;;;;;;5091681;28;20532;-76
2021/04/27 11:47:50;;;;;;;36.60;34.03;;;15.70;39.70;;;;;;5091382;28;20555;-76
2021/04/27 11:50:18;;;;;;;34.50;32.20;;;15.70;39.50;;;;;;5091801;28;20579;-77
2021/04/27 11:53:07;;;;;;;36.07;33.60;;;15.90;40.10;;;;;;5091617;28;20530;-77
2021/04/27 11:55:39;;;;;;;35.20;32.70;;;16.10;39.20;;;;;;5094778;28;20457;-76
2021/04/27 11:58:09;;;;;;;36.47;33.90;;;16.20;38.90;;;;;;5095521;28;20564;-76
2021/04/27 12:00:41;;;;;;;36.47;33.43;;;16.10;38.60;;;;;;5095369;28;20580;-76
2021/04/27 12:03:17;;;;;;;33.80;31.60;;;16.00;38.80;;;;;;5095283;28;20536;-76
2021/04/27 12:05:43;;;;;;;38.40;35.43;;;16.10;38.60;;;;;;5094594;28;20970;-76
2021/04/27 12:08:26;;;;;;;35.70;33.10;;;16.20;38.00;;;;;;5095249;28;20544;-76
2021/04/27 12:11:09;;;;;;;37.13;34.67;;;16.20;38.10;;;;;;5093328;28;20495;-76
2021/04/27 12:13:36;;;;;;;39.20;36.70;;;16.20;38.10;;;;;;5094962;28;20814;-76
2021/04/27 12:16:05;;;;;;;36.10;33.47;;;16.40;37.40;;;;;;5094556;28;20828;-77
2021/04/27 12:18:32;;;;;;;35.00;32.80;;;16.60;37.20;;;;;;5095004;28;20545;-76
2021/04/27 12:20:58;;;;;;;36.90;34.50;;;16.70;36.90;;;;;;5094888;28;20508;-75
2021/04/27 12:23:24;;;;;;;35.87;32.73;;;16.90;36.30;;;;;;5094931;28;20460;-76
2021/04/27 12:25:56;;;;;;;34.87;32.37;;;17.00;35.80;;;;;;5093659;28;20521;-76
2021/04/27 12:28:23;;;;;;;35.30;32.80;;;17.10;35.90;;;;;;5094870;28;20453;-76
2021/04/27 12:30:49;;;;;;;37.40;35.10;;;17.20;35.50;;;;;;5094609;28;20465;-77
2021/04/27 12:33:22;;;;;;;37.97;35.57;;;17.20;36.00;;;;;;5094668;28;21009;-76
2021/04/27 12:35:52;;;;;;;36.13;33.63;;;17.20;36.00;;;;;;5094052;28;20505;-76
2021/04/27 12:38:19;;;;;;;34.70;32.50;;;17.20;36.00;;;;;;5094658;28;20469;-76
2021/04/27 12:40:52;;;;;;;33.93;31.70;;;17.20;35.70;;;;;;5094259;28;20481;-76